sensor_id;sensor_type;location;lat;lon;timestamp;temperature;humidity
20349;DHT22;10332;50.208;18.988;2023-12-28T00:00:26;4.60;99.90
20349;DHT22;10332;50.208;18.988;2023-12-28T00:03:14;4.50;1.00
20349;DHT22;10332;50.208;18.988;2023-12-28T00:05:41;4.50;1.00
20349;DHT22;10332;50.208;18.988;2023-12-28T00:08:09;4.50;1.00
20349;DHT22;10332;50.208;18.988;2023-12-28T00:10:37;4.50;1.00
20349;DHT22;10332;50.208;18.988;2023-12-28T00:13:04;4.50;1.00
20349;DHT22;10332;50.208;18.988;2023-12-28T00:15:32;4.40;1.00
20349;DHT22;10332;50.208;18.988;2023-12-28T00:17:59;4.40;99.90
20349;DHT22;10332;50.208;18.988;2023-12-28T00:20:28;4.40;1.00
20349;DHT22;10332;50.208;18.988;2023-12-28T00:22:55;4.40;1.00
20349;DHT22;10332;50.208;18.988;2023-12-28T00:25:23;4.30;1.00
20349;DHT22;10332;50.208;18.988;2023-12-28T00:27:50;4.30;1.00
20349;DHT22;10332;50.208;18.988;2023-12-28T00:30:17;4.20;1.00
20349;DHT22;10332;50.208;18.988;2023-12-28T00:32:45;4.20;1.00
20349;DHT22;10332;50.208;18.988;2023-12-28T00:35:13;4.20;1.00
20349;DHT22;10332;50.208;18.988;2023-12-28T00:37:40;4.20;1.00
20349;DHT22;10332;50.208;18.988;2023-12-28T00:40:08;4.20;1.00
20349;DHT22;10332;50.208;18.988;2023-12-28T00:42:36;4.10;1.00
20349;DHT22;10332;50.208;18.988;2023-12-28T00:45:04;4.10;1.00
20349;DHT22;10332;50.208;18.988;2023-12-28T00:47:32;4.10;1.00
20349;DHT22;10332;50.208;18.988;2023-12-28T00:49:59;4.10;68.30
20349;DHT22;10332;50.208;18.988;2023-12-28T00:52:27;4.00;99.90
20349;DHT22;10332;50.208;18.988;2023-12-28T00:54:54;4.00;99.90
20349;DHT22;10332;50.208;18.988;2023-12-28T00:57:21;4.00;99.90
20349;DHT22;10332;50.208;18.988;2023-12-28T00:59:49;4.00;92.60
20349;DHT22;10332;50.208;18.988;2023-12-28T01:02:16;4.00;79.80
20349;DHT22;10332;50.208;18.988;2023-12-28T01:04:43;4.00;14.70
20349;DHT22;10332;50.208;18.988;2023-12-28T01:07:11;3.90;1.00
20349;DHT22;10332;50.208;18.988;2023-12-28T01:09:38;3.90;99.90
20349;DHT22;10332;50.208;18.988;2023-12-28T01:12:06;3.90;99.90
20349;DHT22;10332;50.208;18.988;2023-12-28T01:14:33;3.90;69.90
20349;DHT22;10332;50.208;18.988;2023-12-28T01:17:01;3.90;87.80
20349;DHT22;10332;50.208;18.988;2023-12-28T01:19:28;4.00;99.90
20349;DHT22;10332;50.208;18.988;2023-12-28T01:21:56;3.90;99.90
20349;DHT22;10332;50.208;18.988;2023-12-28T01:24:23;3.90;94.40
20349;DHT22;10332;50.208;18.988;2023-12-28T01:26:51;3.90;99.90
20349;DHT22;10332;50.208;18.988;2023-12-28T01:29:19;3.90;38.20
20349;DHT22;10332;50.208;18.988;2023-12-28T01:31:46;3.80;21.20
20349;DHT22;10332;50.208;18.988;2023-12-28T01:34:14;3.80;19.80
20349;DHT22;10332;50.208;18.988;2023-12-28T01:36:41;3.80;24.10
20349;DHT22;10332;50.208;18.988;2023-12-28T01:39:11;3.80;1.00
20349;DHT22;10332;50.208;18.988;2023-12-28T01:41:38;3.80;50.00
20349;DHT22;10332;50.208;18.988;2023-12-28T01:44:06;3.70;7.90
20349;DHT22;10332;50.208;18.988;2023-12-28T01:46:33;3.60;72.70
20349;DHT22;10332;50.208;18.988;2023-12-28T01:49:01;3.60;99.90
20349;DHT22;10332;50.208;18.988;2023-12-28T01:51:29;3.50;1.00
20349;DHT22;10332;50.208;18.988;2023-12-28T01:53:57;3.50;1.00
20349;DHT22;10332;50.208;18.988;2023-12-28T01:56:25;3.50;1.00
20349;DHT22;10332;50.208;18.988;2023-12-28T01:58:53;3.50;1.00
20349;DHT22;10332;50.208;18.988;2023-12-28T02:01:21;3.40;1.00
20349;DHT22;10332;50.208;18.988;2023-12-28T02:03:48;3.40;1.00
20349;DHT22;10332;50.208;18.988;2023-12-28T02:06:16;3.40;99.90
20349;DHT22;10332;50.208;18.988;2023-12-28T02:08:44;3.40;1.00
20349;DHT22;10332;50.208;18.988;2023-12-28T02:11:11;3.50;1.00
20349;DHT22;10332;50.208;18.988;2023-12-28T02:13:39;3.50;1.00
20349;DHT22;10332;50.208;18.988;2023-12-28T02:16:12;3.60;99.90
20349;DHT22;10332;50.208;18.988;2023-12-28T02:18:43;3.60;99.90
20349;DHT22;10332;50.208;18.988;2023-12-28T02:21:13;3.60;1.00
20349;DHT22;10332;50.208;18.988;2023-12-28T02:23:49;3.60;1.00
20349;DHT22;10332;50.208;18.988;2023-12-28T02:26:17;3.60;1.00
20349;DHT22;10332;50.208;18.988;2023-12-28T02:28:47;3.50;1.00
20349;DHT22;10332;50.208;18.988;2023-12-28T02:31:28;3.50;1.00
20349;DHT22;10332;50.208;18.988;2023-12-28T02:34:04;3.50;1.00
20349;DHT22;10332;50.208;18.988;2023-12-28T02:36:35;3.50;1.00
20349;DHT22;10332;50.208;18.988;2023-12-28T02:39:04;3.50;1.00
20349;DHT22;10332;50.208;18.988;2023-12-28T02:41:33;3.40;1.00
20349;DHT22;10332;50.208;18.988;2023-12-28T02:44:01;3.50;1.00
20349;DHT22;10332;50.208;18.988;2023-12-28T02:46:29;3.50;99.90
20349;DHT22;10332;50.208;18.988;2023-12-28T02:48:56;3.50;1.00
20349;DHT22;10332;50.208;18.988;2023-12-28T02:51:27;3.50;99.90
20349;DHT22;10332;50.208;18.988;2023-12-28T02:53:54;3.40;1.00
20349;DHT22;10332;50.208;18.988;2023-12-28T02:56:22;3.50;99.90
20349;DHT22;10332;50.208;18.988;2023-12-28T02:58:49;3.50;1.00
20349;DHT22;10332;50.208;18.988;2023-12-28T03:01:16;3.50;99.90
20349;DHT22;10332;50.208;18.988;2023-12-28T03:03:44;3.50;1.00
20349;DHT22;10332;50.208;18.988;2023-12-28T03:06:11;3.50;1.00
20349;DHT22;10332;50.208;18.988;2023-12-28T03:08:38;3.60;99.90
20349;DHT22;10332;50.208;18.988;2023-12-28T03:11:06;3.60;1.00
20349;DHT22;10332;50.208;18.988;2023-12-28T03:13:33;3.60;95.90
20349;DHT22;10332;50.208;18.988;2023-12-28T03:16:01;3.70;1.00
20349;DHT22;10332;50.208;18.988;2023-12-28T03:18:28;3.80;99.90
20349;DHT22;10332;50.208;18.988;2023-12-28T03:20:55;3.90;99.90
20349;DHT22;10332;50.208;18.988;2023-12-28T03:23:23;4.00;99.90
20349;DHT22;10332;50.208;18.988;2023-12-28T03:25:50;4.00;99.90
20349;DHT22;10332;50.208;18.988;2023-12-28T03:28:17;4.10;99.90
20349;DHT22;10332;50.208;18.988;2023-12-28T03:30:45;4.10;99.90
20349;DHT22;10332;50.208;18.988;2023-12-28T03:33:12;4.20;94.80
20349;DHT22;10332;50.208;18.988;2023-12-28T03:35:40;4.10;1.00
20349;DHT22;10332;50.208;18.988;2023-12-28T03:38:08;4.20;99.90
20349;DHT22;10332;50.208;18.988;2023-12-28T03:40:35;4.20;99.90
20349;DHT22;10332;50.208;18.988;2023-12-28T03:43:03;4.30;99.90
20349;DHT22;10332;50.208;18.988;2023-12-28T03:45:30;4.30;1.00
20349;DHT22;10332;50.208;18.988;2023-12-28T03:47:57;4.30;1.00
20349;DHT22;10332;50.208;18.988;2023-12-28T03:50:25;4.40;1.00
20349;DHT22;10332;50.208;18.988;2023-12-28T03:52:53;4.40;1.00
20349;DHT22;10332;50.208;18.988;2023-12-28T03:55:20;4.50;1.00
20349;DHT22;10332;50.208;18.988;2023-12-28T03:57:47;4.50;1.00
20349;DHT22;10332;50.208;18.988;2023-12-28T04:00:15;4.60;1.00
20349;DHT22;10332;50.208;18.988;2023-12-28T04:02:43;4.60;1.00
20349;DHT22;10332;50.208;18.988;2023-12-28T04:05:10;4.60;1.00
20349;DHT22;10332;50.208;18.988;2023-12-28T04:07:38;4.60;1.00
20349;DHT22;10332;50.208;18.988;2023-12-28T04:10:05;4.70;1.00
20349;DHT22;10332;50.208;18.988;2023-12-28T04:12:33;4.70;1.00
20349;DHT22;10332;50.208;18.988;2023-12-28T04:15:00;4.70;99.90
20349;DHT22;10332;50.208;18.988;2023-12-28T04:17:27;4.70;1.00
20349;DHT22;10332;50.208;18.988;2023-12-28T04:19:55;4.70;1.00
20349;DHT22;10332;50.208;18.988;2023-12-28T04:22:22;4.60;99.90
20349;DHT22;10332;50.208;18.988;2023-12-28T04:24:50;4.60;99.90
20349;DHT22;10332;50.208;18.988;2023-12-28T04:27:17;4.50;99.90
20349;DHT22;10332;50.208;18.988;2023-12-28T04:29:45;4.50;99.90
20349;DHT22;10332;50.208;18.988;2023-12-28T04:32:13;4.50;1.00
20349;DHT22;10332;50.208;18.988;2023-12-28T04:34:40;4.40;1.00
20349;DHT22;10332;50.208;18.988;2023-12-28T04:37:07;4.40;26.50
20349;DHT22;10332;50.208;18.988;2023-12-28T04:39:35;4.40;99.90
20349;DHT22;10332;50.208;18.988;2023-12-28T04:42:02;4.50;99.90
20349;DHT22;10332;50.208;18.988;2023-12-28T04:44:30;4.50;99.90
20349;DHT22;10332;50.208;18.988;2023-12-28T04:46:57;4.50;99.90
20349;DHT22;10332;50.208;18.988;2023-12-28T04:49:25;4.50;99.90
20349;DHT22;10332;50.208;18.988;2023-12-28T04:51:52;4.50;99.90
20349;DHT22;10332;50.208;18.988;2023-12-28T04:54:20;4.60;99.90
20349;DHT22;10332;50.208;18.988;2023-12-28T04:56:47;4.60;99.90
20349;DHT22;10332;50.208;18.988;2023-12-28T04:59:15;4.60;1.00
20349;DHT22;10332;50.208;18.988;2023-12-28T05:01:45;4.60;1.00
20349;DHT22;10332;50.208;18.988;2023-12-28T05:04:12;4.60;1.00
20349;DHT22;10332;50.208;18.988;2023-12-28T05:06:43;4.60;1.00
20349;DHT22;10332;50.208;18.988;2023-12-28T05:09:11;4.60;1.00
20349;DHT22;10332;50.208;18.988;2023-12-28T05:11:38;4.60;1.00
20349;DHT22;10332;50.208;18.988;2023-12-28T05:14:06;4.60;1.00
20349;DHT22;10332;50.208;18.988;2023-12-28T05:16:36;4.60;1.00
20349;DHT22;10332;50.208;18.988;2023-12-28T05:19:04;4.70;1.00
20349;DHT22;10332;50.208;18.988;2023-12-28T05:21:31;4.70;1.00
20349;DHT22;10332;50.208;18.988;2023-12-28T05:23:58;4.70;1.00
20349;DHT22;10332;50.208;18.988;2023-12-28T05:26:26;4.80;1.00
20349;DHT22;10332;50.208;18.988;2023-12-28T05:28:54;4.80;1.00
20349;DHT22;10332;50.208;18.988;2023-12-28T05:31:21;4.80;1.00
20349;DHT22;10332;50.208;18.988;2023-12-28T05:33:49;4.90;1.00
20349;DHT22;10332;50.208;18.988;2023-12-28T05:36:16;4.90;1.00
20349;DHT22;10332;50.208;18.988;2023-12-28T05:38:44;5.00;1.00
20349;DHT22;10332;50.208;18.988;2023-12-28T05:41:11;5.00;1.00
20349;DHT22;10332;50.208;18.988;2023-12-28T05:43:39;5.00;1.00
20349;DHT22;10332;50.208;18.988;2023-12-28T05:46:06;5.10;1.00
20349;DHT22;10332;50.208;18.988;2023-12-28T05:48:33;5.10;1.00
20349;DHT22;10332;50.208;18.988;2023-12-28T05:51:01;5.10;1.00
20349;DHT22;10332;50.208;18.988;2023-12-28T05:53:28;5.20;1.00
20349;DHT22;10332;50.208;18.988;2023-12-28T05:55:56;5.20;1.00
20349;DHT22;10332;50.208;18.988;2023-12-28T05:58:23;5.20;1.00
20349;DHT22;10332;50.208;18.988;2023-12-28T06:00:50;5.20;1.00
20349;DHT22;10332;50.208;18.988;2023-12-28T06:03:18;5.30;1.00
20349;DHT22;10332;50.208;18.988;2023-12-28T06:05:45;5.30;1.00
20349;DHT22;10332;50.208;18.988;2023-12-28T06:08:13;5.30;1.00
20349;DHT22;10332;50.208;18.988;2023-12-28T06:10:40;5.30;1.00
20349;DHT22;10332;50.208;18.988;2023-12-28T06:13:08;5.30;1.00
20349;DHT22;10332;50.208;18.988;2023-12-28T06:15:35;5.30;1.00
20349;DHT22;10332;50.208;18.988;2023-12-28T06:18:03;5.30;1.00
20349;DHT22;10332;50.208;18.988;2023-12-28T06:20:31;5.40;1.00
20349;DHT22;10332;50.208;18.988;2023-12-28T06:22:59;5.40;1.00
20349;DHT22;10332;50.208;18.988;2023-12-28T06:25:26;5.40;1.00
20349;DHT22;10332;50.208;18.988;2023-12-28T06:27:53;5.40;1.00
20349;DHT22;10332;50.208;18.988;2023-12-28T06:30:21;5.40;1.00
20349;DHT22;10332;50.208;18.988;2023-12-28T06:32:48;5.40;1.00
20349;DHT22;10332;50.208;18.988;2023-12-28T06:35:16;5.40;1.00
20349;DHT22;10332;50.208;18.988;2023-12-28T06:37:43;5.40;1.00
20349;DHT22;10332;50.208;18.988;2023-12-28T06:40:11;5.50;1.00
20349;DHT22;10332;50.208;18.988;2023-12-28T06:42:38;5.50;1.00
20349;DHT22;10332;50.208;18.988;2023-12-28T06:45:06;5.50;1.00
20349;DHT22;10332;50.208;18.988;2023-12-28T06:47:34;5.50;1.00
20349;DHT22;10332;50.208;18.988;2023-12-28T06:50:01;5.60;1.00
20349;DHT22;10332;50.208;18.988;2023-12-28T06:52:29;5.60;1.00
20349;DHT22;10332;50.208;18.988;2023-12-28T06:54:58;5.60;1.00
20349;DHT22;10332;50.208;18.988;2023-12-28T06:57:26;5.70;1.00
20349;DHT22;10332;50.208;18.988;2023-12-28T06:59:53;5.70;1.00
20349;DHT22;10332;50.208;18.988;2023-12-28T07:02:21;5.80;1.00
20349;DHT22;10332;50.208;18.988;2023-12-28T07:04:48;5.80;1.00
20349;DHT22;10332;50.208;18.988;2023-12-28T07:07:16;5.90;1.00
20349;DHT22;10332;50.208;18.988;2023-12-28T07:09:43;6.00;1.00
20349;DHT22;10332;50.208;18.988;2023-12-28T07:12:11;6.20;1.00
20349;DHT22;10332;50.208;18.988;2023-12-28T07:14:38;6.40;1.00
20349;DHT22;10332;50.208;18.988;2023-12-28T07:17:05;6.50;1.00
20349;DHT22;10332;50.208;18.988;2023-12-28T07:19:33;6.60;1.00
20349;DHT22;10332;50.208;18.988;2023-12-28T07:22:01;6.70;99.90
20349;DHT22;10332;50.208;18.988;2023-12-28T07:24:28;6.70;1.00
20349;DHT22;10332;50.208;18.988;2023-12-28T07:26:56;6.70;1.00
20349;DHT22;10332;50.208;18.988;2023-12-28T07:29:23;6.70;99.90
20349;DHT22;10332;50.208;18.988;2023-12-28T07:31:54;6.80;1.00
20349;DHT22;10332;50.208;18.988;2023-12-28T07:34:21;6.80;1.00
20349;DHT22;10332;50.208;18.988;2023-12-28T07:36:49;6.90;99.90
20349;DHT22;10332;50.208;18.988;2023-12-28T07:39:16;6.90;1.00
20349;DHT22;10332;50.208;18.988;2023-12-28T07:41:43;7.00;1.00
20349;DHT22;10332;50.208;18.988;2023-12-28T07:44:11;7.00;99.90
20349;DHT22;10332;50.208;18.988;2023-12-28T07:46:38;7.00;1.00
20349;DHT22;10332;50.208;18.988;2023-12-28T07:49:05;7.10;1.00
20349;DHT22;10332;50.208;18.988;2023-12-28T07:51:33;7.20;99.90
20349;DHT22;10332;50.208;18.988;2023-12-28T07:54:00;7.30;1.00
20349;DHT22;10332;50.208;18.988;2023-12-28T07:56:28;7.30;1.00
20349;DHT22;10332;50.208;18.988;2023-12-28T07:58:55;7.40;99.90
20349;DHT22;10332;50.208;18.988;2023-12-28T08:01:22;7.50;99.90
20349;DHT22;10332;50.208;18.988;2023-12-28T08:03:49;7.50;1.00
20349;DHT22;10332;50.208;18.988;2023-12-28T08:06:17;7.50;1.00
20349;DHT22;10332;50.208;18.988;2023-12-28T08:08:44;7.50;1.00
20349;DHT22;10332;50.208;18.988;2023-12-28T08:11:12;7.60;1.00
20349;DHT22;10332;50.208;18.988;2023-12-28T08:13:39;7.60;99.90
20349;DHT22;10332;50.208;18.988;2023-12-28T08:16:07;7.60;99.90
20349;DHT22;10332;50.208;18.988;2023-12-28T08:18:34;7.70;99.90
20349;DHT22;10332;50.208;18.988;2023-12-28T08:21:02;7.80;1.00
20349;DHT22;10332;50.208;18.988;2023-12-28T08:23:29;7.80;1.00
20349;DHT22;10332;50.208;18.988;2023-12-28T08:25:56;7.80;1.00
20349;DHT22;10332;50.208;18.988;2023-12-28T08:28:23;7.90;1.00
20349;DHT22;10332;50.208;18.988;2023-12-28T08:30:51;8.00;1.00
20349;DHT22;10332;50.208;18.988;2023-12-28T08:33:18;8.00;99.90
20349;DHT22;10332;50.208;18.988;2023-12-28T08:35:46;8.00;99.90
20349;DHT22;10332;50.208;18.988;2023-12-28T08:38:13;8.10;99.90
20349;DHT22;10332;50.208;18.988;2023-12-28T08:40:40;8.20;99.90
20349;DHT22;10332;50.208;18.988;2023-12-28T08:43:07;8.50;1.00
20349;DHT22;10332;50.208;18.988;2023-12-28T08:45:35;8.80;1.00
20349;DHT22;10332;50.208;18.988;2023-12-28T08:48:03;9.80;99.90
20349;DHT22;10332;50.208;18.988;2023-12-28T08:50:32;11.50;99.90
20349;DHT22;10332;50.208;18.988;2023-12-28T08:52:59;13.00;1.00
20349;DHT22;10332;50.208;18.988;2023-12-28T08:55:26;14.40;99.90
20349;DHT22;10332;50.208;18.988;2023-12-28T08:57:54;15.50;99.90
20349;DHT22;10332;50.208;18.988;2023-12-28T09:00:21;16.50;99.90
20349;DHT22;10332;50.208;18.988;2023-12-28T09:02:48;17.50;99.90
20349;DHT22;10332;50.208;18.988;2023-12-28T09:05:16;18.40;97.30
20349;DHT22;10332;50.208;18.988;2023-12-28T09:07:43;19.30;56.30
20349;DHT22;10332;50.208;18.988;2023-12-28T09:10:11;20.10;31.60
20349;DHT22;10332;50.208;18.988;2023-12-28T09:12:40;21.20;12.40
20349;DHT22;10332;50.208;18.988;2023-12-28T09:15:08;22.20;1.00
20349;DHT22;10332;50.208;18.988;2023-12-28T09:17:35;23.10;1.00
20349;DHT22;10332;50.208;18.988;2023-12-28T09:20:04;23.90;1.00
20349;DHT22;10332;50.208;18.988;2023-12-28T09:22:33;24.80;1.00
20349;DHT22;10332;50.208;18.988;2023-12-28T09:25:01;25.30;1.00
20349;DHT22;10332;50.208;18.988;2023-12-28T09:27:28;25.60;1.00
20349;DHT22;10332;50.208;18.988;2023-12-28T09:29:55;26.20;1.00
20349;DHT22;10332;50.208;18.988;2023-12-28T09:32:22;26.90;1.00
20349;DHT22;10332;50.208;18.988;2023-12-28T09:34:50;27.40;1.00
20349;DHT22;10332;50.208;18.988;2023-12-28T09:37:17;27.70;1.00
20349;DHT22;10332;50.208;18.988;2023-12-28T09:39:45;28.10;1.00
20349;DHT22;10332;50.208;18.988;2023-12-28T09:42:25;28.70;1.00
20349;DHT22;10332;50.208;18.988;2023-12-28T09:44:56;29.20;1.00
20349;DHT22;10332;50.208;18.988;2023-12-28T09:47:24;29.40;1.00
20349;DHT22;10332;50.208;18.988;2023-12-28T09:49:51;29.30;1.00
20349;DHT22;10332;50.208;18.988;2023-12-28T09:52:19;29.40;1.00
20349;DHT22;10332;50.208;18.988;2023-12-28T09:54:46;29.80;1.00
20349;DHT22;10332;50.208;18.988;2023-12-28T09:57:14;30.10;1.00
20349;DHT22;10332;50.208;18.988;2023-12-28T09:59:41;30.40;1.00
20349;DHT22;10332;50.208;18.988;2023-12-28T10:02:10;30.70;1.00
20349;DHT22;10332;50.208;18.988;2023-12-28T10:04:38;31.10;1.00
20349;DHT22;10332;50.208;18.988;2023-12-28T10:07:05;31.30;1.00
20349;DHT22;10332;50.208;18.988;2023-12-28T10:09:33;31.50;1.00
20349;DHT22;10332;50.208;18.988;2023-12-28T10:12:00;31.50;1.00
20349;DHT22;10332;50.208;18.988;2023-12-28T10:14:28;31.40;1.00
20349;DHT22;10332;50.208;18.988;2023-12-28T10:16:55;31.20;1.00
20349;DHT22;10332;50.208;18.988;2023-12-28T10:19:23;30.70;1.00
20349;DHT22;10332;50.208;18.988;2023-12-28T10:21:51;30.50;1.00
20349;DHT22;10332;50.208;18.988;2023-12-28T10:24:18;30.30;1.00
20349;DHT22;10332;50.208;18.988;2023-12-28T10:26:46;30.10;1.00
20349;DHT22;10332;50.208;18.988;2023-12-28T10:29:13;29.80;1.00
20349;DHT22;10332;50.208;18.988;2023-12-28T10:31:44;29.60;1.00
20349;DHT22;10332;50.208;18.988;2023-12-28T10:34:16;29.60;1.00
20349;DHT22;10332;50.208;18.988;2023-12-28T10:36:46;29.40;1.00
20349;DHT22;10332;50.208;18.988;2023-12-28T10:39:16;29.40;1.00
20349;DHT22;10332;50.208;18.988;2023-12-28T10:41:49;29.50;1.00
20349;DHT22;10332;50.208;18.988;2023-12-28T10:44:19;30.00;1.00
20349;DHT22;10332;50.208;18.988;2023-12-28T10:46:50;30.30;1.00
20349;DHT22;10332;50.208;18.988;2023-12-28T10:49:21;30.40;1.00
20349;DHT22;10332;50.208;18.988;2023-12-28T10:51:53;30.60;1.00
20349;DHT22;10332;50.208;18.988;2023-12-28T10:57:18;30.60;1.00
20349;DHT22;10332;50.208;18.988;2023-12-28T11:00:00;30.10;1.00
20349;DHT22;10332;50.208;18.988;2023-12-28T11:02:28;29.80;1.00
20349;DHT22;10332;50.208;18.988;2023-12-28T11:05:00;29.60;1.00
20349;DHT22;10332;50.208;18.988;2023-12-28T11:07:30;29.50;1.00
20349;DHT22;10332;50.208;18.988;2023-12-28T11:10:05;29.80;1.00
20349;DHT22;10332;50.208;18.988;2023-12-28T11:12:34;29.90;1.00
20349;DHT22;10332;50.208;18.988;2023-12-28T11:15:05;30.10;1.00
20349;DHT22;10332;50.208;18.988;2023-12-28T11:17:37;30.10;1.00
20349;DHT22;10332;50.208;18.988;2023-12-28T11:20:06;30.10;1.00
20349;DHT22;10332;50.208;18.988;2023-12-28T11:22:34;30.00;1.00
20349;DHT22;10332;50.208;18.988;2023-12-28T11:25:03;29.90;1.00
20349;DHT22;10332;50.208;18.988;2023-12-28T11:27:35;30.10;1.00
20349;DHT22;10332;50.208;18.988;2023-12-28T11:30:04;30.30;1.00
20349;DHT22;10332;50.208;18.988;2023-12-28T11:32:42;30.30;1.00
20349;DHT22;10332;50.208;18.988;2023-12-28T11:35:13;30.20;1.00
20349;DHT22;10332;50.208;18.988;2023-12-28T11:37:46;30.20;1.00
20349;DHT22;10332;50.208;18.988;2023-12-28T11:40:17;30.00;1.00
20349;DHT22;10332;50.208;18.988;2023-12-28T11:42:53;30.20;1.00
20349;DHT22;10332;50.208;18.988;2023-12-28T11:45:24;30.50;1.00
20349;DHT22;10332;50.208;18.988;2023-12-28T11:48:02;30.70;1.00
20349;DHT22;10332;50.208;18.988;2023-12-28T11:50:31;30.90;1.00
20349;DHT22;10332;50.208;18.988;2023-12-28T11:52:58;29.70;1.00
20349;DHT22;10332;50.208;18.988;2023-12-28T11:55:26;28.00;1.00
20349;DHT22;10332;50.208;18.988;2023-12-28T11:57:54;26.50;1.00
20349;DHT22;10332;50.208;18.988;2023-12-28T12:00:23;24.80;1.00
20349;DHT22;10332;50.208;18.988;2023-12-28T12:02:52;23.10;1.00
20349;DHT22;10332;50.208;18.988;2023-12-28T12:05:20;21.80;1.00
20349;DHT22;10332;50.208;18.988;2023-12-28T12:07:49;21.10;1.00
20349;DHT22;10332;50.208;18.988;2023-12-28T12:10:17;20.10;1.00
20349;DHT22;10332;50.208;18.988;2023-12-28T12:12:44;19.30;1.00
20349;DHT22;10332;50.208;18.988;2023-12-28T12:15:12;18.60;1.00
20349;DHT22;10332;50.208;18.988;2023-12-28T12:17:39;18.00;1.00
20349;DHT22;10332;50.208;18.988;2023-12-28T12:20:08;17.30;1.00
20349;DHT22;10332;50.208;18.988;2023-12-28T12:22:36;16.80;1.00
20349;DHT22;10332;50.208;18.988;2023-12-28T12:25:13;16.40;1.00
20349;DHT22;10332;50.208;18.988;2023-12-28T12:27:40;16.10;1.00
20349;DHT22;10332;50.208;18.988;2023-12-28T12:30:08;15.70;1.00
20349;DHT22;10332;50.208;18.988;2023-12-28T12:32:36;15.30;1.00
20349;DHT22;10332;50.208;18.988;2023-12-28T12:35:06;15.00;1.00
20349;DHT22;10332;50.208;18.988;2023-12-28T12:37:34;14.70;1.00
20349;DHT22;10332;50.208;18.988;2023-12-28T12:40:02;14.50;1.00
20349;DHT22;10332;50.208;18.988;2023-12-28T12:42:30;14.40;1.00
20349;DHT22;10332;50.208;18.988;2023-12-28T12:44:58;14.20;1.00
20349;DHT22;10332;50.208;18.988;2023-12-28T12:47:25;14.10;1.00
20349;DHT22;10332;50.208;18.988;2023-12-28T12:49:55;14.10;1.00
20349;DHT22;10332;50.208;18.988;2023-12-28T12:52:22;14.00;1.00
20349;DHT22;10332;50.208;18.988;2023-12-28T12:54:57;14.10;1.00
20349;DHT22;10332;50.208;18.988;2023-12-28T12:57:25;14.20;1.00
20349;DHT22;10332;50.208;18.988;2023-12-28T12:59:55;14.10;1.00
20349;DHT22;10332;50.208;18.988;2023-12-28T13:02:24;14.00;1.00
20349;DHT22;10332;50.208;18.988;2023-12-28T13:04:52;13.90;1.00
20349;DHT22;10332;50.208;18.988;2023-12-28T13:07:20;13.80;1.00
20349;DHT22;10332;50.208;18.988;2023-12-28T13:09:48;13.70;1.00
20349;DHT22;10332;50.208;18.988;2023-12-28T13:12:15;13.70;1.00
20349;DHT22;10332;50.208;18.988;2023-12-28T13:14:43;13.70;1.00
20349;DHT22;10332;50.208;18.988;2023-12-28T13:17:11;13.70;1.00
20349;DHT22;10332;50.208;18.988;2023-12-28T13:19:39;13.60;1.00
20349;DHT22;10332;50.208;18.988;2023-12-28T13:22:06;13.50;1.00
20349;DHT22;10332;50.208;18.988;2023-12-28T13:24:34;13.50;1.00
20349;DHT22;10332;50.208;18.988;2023-12-28T13:27:01;13.90;1.00
20349;DHT22;10332;50.208;18.988;2023-12-28T13:29:28;14.70;1.00
20349;DHT22;10332;50.208;18.988;2023-12-28T13:31:56;14.70;1.00
20349;DHT22;10332;50.208;18.988;2023-12-28T13:34:25;14.50;1.00
20349;DHT22;10332;50.208;18.988;2023-12-28T13:36:52;14.10;1.00
20349;DHT22;10332;50.208;18.988;2023-12-28T13:39:20;13.70;1.00
20349;DHT22;10332;50.208;18.988;2023-12-28T13:41:48;13.50;1.00
20349;DHT22;10332;50.208;18.988;2023-12-28T13:44:16;13.20;1.00
20349;DHT22;10332;50.208;18.988;2023-12-28T13:46:44;13.10;1.00
20349;DHT22;10332;50.208;18.988;2023-12-28T13:49:11;13.00;1.00
20349;DHT22;10332;50.208;18.988;2023-12-28T13:51:39;12.80;1.00
20349;DHT22;10332;50.208;18.988;2023-12-28T13:54:06;12.70;1.00
20349;DHT22;10332;50.208;18.988;2023-12-28T13:56:33;12.70;1.00
20349;DHT22;10332;50.208;18.988;2023-12-28T13:59:01;12.60;1.00
20349;DHT22;10332;50.208;18.988;2023-12-28T14:01:28;12.60;1.00
20349;DHT22;10332;50.208;18.988;2023-12-28T14:03:56;12.50;1.00
20349;DHT22;10332;50.208;18.988;2023-12-28T14:06:24;12.40;1.00
20349;DHT22;10332;50.208;18.988;2023-12-28T14:08:51;12.30;1.00
20349;DHT22;10332;50.208;18.988;2023-12-28T14:11:18;12.10;1.00
20349;DHT22;10332;50.208;18.988;2023-12-28T14:13:46;12.00;3.30
20349;DHT22;10332;50.208;18.988;2023-12-28T14:16:13;11.90;8.20
20349;DHT22;10332;50.208;18.988;2023-12-28T14:18:40;11.80;15.50
20349;DHT22;10332;50.208;18.988;2023-12-28T14:21:09;11.70;22.50
20349;DHT22;10332;50.208;18.988;2023-12-28T14:23:37;11.60;34.60
20349;DHT22;10332;50.208;18.988;2023-12-28T14:26:13;11.50;43.20
20349;DHT22;10332;50.208;18.988;2023-12-28T14:28:44;11.40;54.30
20349;DHT22;10332;50.208;18.988;2023-12-28T14:31:12;11.40;69.70
20349;DHT22;10332;50.208;18.988;2023-12-28T14:33:40;11.40;91.70
20349;DHT22;10332;50.208;18.988;2023-12-28T14:36:35;11.40;99.90
20349;DHT22;10332;50.208;18.988;2023-12-28T14:39:09;11.30;99.90
20349;DHT22;10332;50.208;18.988;2023-12-28T14:41:37;11.30;99.90
20349;DHT22;10332;50.208;18.988;2023-12-28T14:44:09;11.20;99.90
20349;DHT22;10332;50.208;18.988;2023-12-28T14:46:37;11.20;99.90
20349;DHT22;10332;50.208;18.988;2023-12-28T14:49:04;11.10;99.90
20349;DHT22;10332;50.208;18.988;2023-12-28T14:51:32;11.10;99.90
20349;DHT22;10332;50.208;18.988;2023-12-28T14:53:59;11.10;99.90
20349;DHT22;10332;50.208;18.988;2023-12-28T14:56:26;11.00;99.90
20349;DHT22;10332;50.208;18.988;2023-12-28T14:59:07;11.00;99.90
20349;DHT22;10332;50.208;18.988;2023-12-28T15:01:34;10.90;99.90
20349;DHT22;10332;50.208;18.988;2023-12-28T15:04:02;10.90;99.90
20349;DHT22;10332;50.208;18.988;2023-12-28T15:06:29;10.90;99.90
20349;DHT22;10332;50.208;18.988;2023-12-28T15:08:57;10.80;99.90
20349;DHT22;10332;50.208;18.988;2023-12-28T15:11:24;10.70;99.90
20349;DHT22;10332;50.208;18.988;2023-12-28T15:14:12;10.70;99.90
20349;DHT22;10332;50.208;18.988;2023-12-28T15:16:39;10.60;99.90
20349;DHT22;10332;50.208;18.988;2023-12-28T15:19:07;10.60;99.90
20349;DHT22;10332;50.208;18.988;2023-12-28T15:21:34;10.60;99.90
20349;DHT22;10332;50.208;18.988;2023-12-28T15:24:03;10.50;99.90
20349;DHT22;10332;50.208;18.988;2023-12-28T15:26:31;10.50;99.90
20349;DHT22;10332;50.208;18.988;2023-12-28T15:28:58;10.50;99.90
20349;DHT22;10332;50.208;18.988;2023-12-28T15:31:26;10.40;99.90
20349;DHT22;10332;50.208;18.988;2023-12-28T15:33:54;10.40;99.90
20349;DHT22;10332;50.208;18.988;2023-12-28T15:36:22;10.40;99.90
20349;DHT22;10332;50.208;18.988;2023-12-28T15:38:50;10.30;99.90
20349;DHT22;10332;50.208;18.988;2023-12-28T15:41:17;10.30;99.90
20349;DHT22;10332;50.208;18.988;2023-12-28T15:43:45;10.30;99.90